Flight Track Log - Related Links

Times and Time Zones

All times are in EDT time to prevent confusion due to time zone crossing. See the CES2231 flight status page for this flight to view local times or setup timezone preferences in your user account.


Time Position Orientation Groundspeed Altitude Reporting Facility
EDT Latitude Longitude Course Direction KTS MPH feet Rate Location/Type
Tue 07:04:00 AM 33.9399 107.0403 251° West  Level Estimated
Tue 07:05:00 AM 33.9139 106.9553 250° West  Level Estimated
Tue 07:06:00 AM 33.8879 106.8703 250° West  Level Estimated
Tue 07:07:00 AM 33.8618 106.7854 250° West  Level Estimated
Tue 07:08:00 AM 33.8356 106.7005 250° West  Level Estimated
Tue 07:09:00 AM 33.8094 106.6157 250° West  Level Estimated
Tue 07:10:00 AM 33.7831 106.5309 250° West  Level Estimated
Tue 07:11:00 AM 33.7568 106.4462 250° West  Level Estimated
Tue 07:12:00 AM 33.7304 106.3616 249° West  Level Estimated
Tue 07:13:00 AM 33.7040 106.2769 249° West  Level Estimated
Tue 07:14:00 AM 33.6775 106.1924 249° West  Level Estimated
Tue 07:15:00 AM 33.6509 106.1079 249° West  Level Estimated
Tue 07:16:00 AM 33.6243 106.0235 249° West  Level Estimated
Tue 07:17:00 AM 33.5976 105.9390 249° West  Level Estimated
Tue 07:18:00 AM 33.5709 105.8547 249° West  Level Estimated
Tue 07:19:00 AM 33.5441 105.7704 249° West  Level Estimated
Tue 07:20:00 AM 33.5172 105.6862 249° West  Level Estimated
Tue 07:21:00 AM 33.4903 105.6020 249° West  Level Estimated
Tue 07:22:00 AM 33.4634 105.5178 249° West  Level Estimated
Tue 07:23:00 AM 33.4364 105.4338 249° West  Level Estimated
Tue 07:24:00 AM 33.4093 105.3497 249° West  Level Estimated
Tue 07:25:00 AM 33.3821 105.2657 249° West  Level Estimated
Tue 07:26:00 AM 33.3550 105.1818 249° West  Level Estimated
Tue 07:27:00 AM 33.3277 105.0980 249° West  Level Estimated
Tue 07:28:00 AM 33.3004 105.0141 249° West  Level Estimated
Tue 07:29:00 AM 33.2731 104.9304 249° West  Level Estimated
Tue 07:30:00 AM 33.2457 104.8466 249° West  Level Estimated
Tue 07:31:00 AM 33.2182 104.7630 249° West  Level Estimated
Tue 07:32:00 AM 33.1907 104.6794 249° West  Level Estimated
Tue 07:33:00 AM 33.1631 104.5958 249° West  Level Estimated
Tue 07:34:00 AM 33.1354 104.5123 248° West  Level Estimated
Tue 07:35:00 AM 33.1077 104.4288 248° West  Level Estimated
Tue 07:35:47 AM 32.4080 104.5080 248° West 377 434 23,600  Level FlightAware ADS-B
Tue 07:36:00 AM 33.0800 104.3455 248° West  Level Estimated
Tue 07:36:23 AM 32.4090 104.4350 271° West 375 432 23,600  Level FlightAware ADS-B
Tue 07:37:00 AM 32.4100 104.3590 271° West 372 428 23,600 -250 Level FlightAware ADS-B
Tue 07:37:35 AM 32.4120 104.2900 272° West 348 400 23,300 -1,254 Descending FlightAware ADS-B
Tue 07:38:07 AM 32.4240 104.2310 284° West 344 396 22,200 -2,032 Descending FlightAware ADS-B
Tue 07:38:37 AM 32.4440 104.1810 295° West 339 390 21,200 -1,000 Descending FlightAware ADS-B
Tue 07:39:25 AM 32.4780 104.1160 302° West 338 389 20,900 -214 Descending FlightAware ADS-B
Tue 07:40:01 AM 32.5040 104.0680 303° West 338 389 20,900  Level FlightAware ADS-B
Tue 07:40:56 AM 32.5420 103.9940 301° West 338 389 20,900  Level FlightAware ADS-B
Tue 07:41:30 AM 32.5660 103.9490 302° West 338 389 20,900  Level FlightAware ADS-B
Tue 07:42:36 AM 32.6130 103.8610 302° West 338 389 20,900  Level FlightAware ADS-B
Tue 07:45:00 AM 32.7721 103.7450 329° Northwest  Level Estimated
Tue 07:46:00 AM 32.8384 103.6966 328° Northwest  Level Estimated
Tue 07:47:00 AM 32.8570 103.6830 328° Northwest  Level Estimated
Tue 07:48:00 AM 32.8570 103.6830 North  Level Estimated
Tue 07:49:00 AM 32.8570 103.6830 North  Level Estimated
Tue 07:50:00 AM 32.8570 103.6830 North  Level Estimated
Tue 07:51:00 AM 32.8570 103.6830 North  Level Estimated
Tue 07:52:00 AM 32.8570 103.6830 North  Level Estimated
Tue 07:53:00 AM 32.8570 103.6830 North  Level Estimated
Tue 07:54:00 AM 32.8570 103.6830 North  Level Estimated
Tue 07:55:00 AM 32.8570 103.6830 North  Level Estimated
Tue 07:56:00 AM 32.8570 103.6830 North  Level Estimated
Tue 07:57:00 AM 32.8570 103.6830 North  Level Estimated
Tue 07:58:00 AM 32.8570 103.6830 North  Level Estimated

Login

Don't have an account? Register now (free) for customized features, flight alerts, and more!